Terminal Aerodrome Forecast
Issued by NWS Jacksonville, FL

Home | Current Version | Previous Version | Text Only | Print | Product List | Glossary On
Versions: 1 2 3 4 5 6 7 8 9 10 11 12 13 14 15 16 17 18 19 20 21 22 23 24 25 26
000
FTUS42 KJAX 290500
TAFGNV
TAF
KGNV 290520Z 2906/3006 00000KT 3SM BR OVC015
      TEMPO 2906/2909 1/2SM FG OVC003
     FM290900 23003KT 1/4SM FG OVC001
      TEMPO 2912/2915 1/2SM FG OVC004
     FM291500 21010KT P6SM VCSH BKN015 OVC030=

USA.gov is the U.S. government's official web portal to all federal, state and local government web resources and services.